sensor_id;sensor_type;location;lat;lon;timestamp;P1;durP1;ratioP1;P2;durP2;ratioP2
562;SDS011;266;49.514;8.294;2022-07-22T00:01:51;5.40;;;5.00;;
562;SDS011;266;49.514;8.294;2022-07-22T00:04:21;7.00;;;6.37;;
562;SDS011;266;49.514;8.294;2022-07-22T00:06:49;5.80;;;5.07;;
562;SDS011;266;49.514;8.294;2022-07-22T00:09:17;6.50;;;5.83;;
562;SDS011;266;49.514;8.294;2022-07-22T00:11:45;5.50;;;5.10;;
562;SDS011;266;49.514;8.294;2022-07-22T00:14:13;6.77;;;6.07;;
562;SDS011;266;49.514;8.294;2022-07-22T00:16:41;6.23;;;5.60;;
562;SDS011;266;49.514;8.294;2022-07-22T00:19:09;6.07;;;5.57;;
562;SDS011;266;49.514;8.294;2022-07-22T00:21:38;5.53;;;4.70;;
562;SDS011;266;49.514;8.294;2022-07-22T00:24:06;5.57;;;5.07;;
562;SDS011;266;49.514;8.294;2022-07-22T00:26:35;6.80;;;6.20;;
562;SDS011;266;49.514;8.294;2022-07-22T00:29:03;7.07;;;6.57;;
562;SDS011;266;49.514;8.294;2022-07-22T00:31:31;7.57;;;5.67;;
562;SDS011;266;49.514;8.294;2022-07-22T00:33:59;6.90;;;6.30;;
562;SDS011;266;49.514;8.294;2022-07-22T00:36:28;6.67;;;6.10;;
562;SDS011;266;49.514;8.294;2022-07-22T00:38:57;5.83;;;5.33;;
562;SDS011;266;49.514;8.294;2022-07-22T00:41:26;7.20;;;6.60;;
562;SDS011;266;49.514;8.294;2022-07-22T00:43:57;7.07;;;6.50;;
562;SDS011;266;49.514;8.294;2022-07-22T00:46:26;6.40;;;5.90;;
562;SDS011;266;49.514;8.294;2022-07-22T00:48:57;6.23;;;5.73;;
562;SDS011;266;49.514;8.294;2022-07-22T00:51:26;6.50;;;6.00;;
562;SDS011;266;49.514;8.294;2022-07-22T00:53:58;6.83;;;6.23;;
562;SDS011;266;49.514;8.294;2022-07-22T00:56:27;6.20;;;5.70;;
562;SDS011;266;49.514;8.294;2022-07-22T00:58:56;5.90;;;5.40;;
562;SDS011;266;49.514;8.294;2022-07-22T01:01:26;6.30;;;5.80;;
562;SDS011;266;49.514;8.294;2022-07-22T01:03:55;6.37;;;5.87;;
562;SDS011;266;49.514;8.294;2022-07-22T01:06:27;6.80;;;6.20;;
562;SDS011;266;49.514;8.294;2022-07-22T01:08:55;5.60;;;5.10;;
562;SDS011;266;49.514;8.294;2022-07-22T01:11:25;5.57;;;5.17;;
562;SDS011;266;49.514;8.294;2022-07-22T01:13:54;6.10;;;4.97;;
562;SDS011;266;49.514;8.294;2022-07-22T01:16:23;6.60;;;6.00;;
562;SDS011;266;49.514;8.294;2022-07-22T01:18:51;6.70;;;6.00;;
562;SDS011;266;49.514;8.294;2022-07-22T01:21:21;6.00;;;5.47;;
562;SDS011;266;49.514;8.294;2022-07-22T01:23:50;6.93;;;6.27;;
562;SDS011;266;49.514;8.294;2022-07-22T01:26:18;7.10;;;5.87;;
562;SDS011;266;49.514;8.294;2022-07-22T01:28:46;6.63;;;6.03;;
562;SDS011;266;49.514;8.294;2022-07-22T01:31:14;6.10;;;5.60;;
562;SDS011;266;49.514;8.294;2022-07-22T01:33:42;6.60;;;6.00;;
562;SDS011;266;49.514;8.294;2022-07-22T01:36:10;7.20;;;6.63;;
562;SDS011;266;49.514;8.294;2022-07-22T01:38:40;6.43;;;5.93;;
562;SDS011;266;49.514;8.294;2022-07-22T01:41:08;6.97;;;6.37;;
562;SDS011;266;49.514;8.294;2022-07-22T01:43:36;7.03;;;6.33;;
562;SDS011;266;49.514;8.294;2022-07-22T01:46:04;6.20;;;5.70;;
562;SDS011;266;49.514;8.294;2022-07-22T01:48:32;6.77;;;6.17;;
562;SDS011;266;49.514;8.294;2022-07-22T01:51:00;6.60;;;6.00;;
562;SDS011;266;49.514;8.294;2022-07-22T01:53:28;5.90;;;5.40;;
562;SDS011;266;49.514;8.294;2022-07-22T01:56:00;7.63;;;6.93;;
562;SDS011;266;49.514;8.294;2022-07-22T01:58:31;6.80;;;6.23;;
562;SDS011;266;49.514;8.294;2022-07-22T02:01:05;7.33;;;6.63;;
562;SDS011;266;49.514;8.294;2022-07-22T02:03:34;6.60;;;6.00;;
562;SDS011;266;49.514;8.294;2022-07-22T02:06:02;7.00;;;6.47;;
562;SDS011;266;49.514;8.294;2022-07-22T02:08:31;6.33;;;5.83;;
562;SDS011;266;49.514;8.294;2022-07-22T02:11:01;8.60;;;7.70;;
562;SDS011;266;49.514;8.294;2022-07-22T02:13:29;6.73;;;6.20;;
562;SDS011;266;49.514;8.294;2022-07-22T02:15:57;6.83;;;6.33;;
562;SDS011;266;49.514;8.294;2022-07-22T02:18:25;6.80;;;6.20;;
562;SDS011;266;49.514;8.294;2022-07-22T02:20:53;7.00;;;6.40;;
562;SDS011;266;49.514;8.294;2022-07-22T02:23:21;6.97;;;6.37;;
562;SDS011;266;49.514;8.294;2022-07-22T02:25:49;7.20;;;6.60;;
562;SDS011;266;49.514;8.294;2022-07-22T02:28:18;8.00;;;7.27;;
562;SDS011;266;49.514;8.294;2022-07-22T02:30:47;6.57;;;6.07;;
562;SDS011;266;49.514;8.294;2022-07-22T02:33:15;6.93;;;6.33;;
562;SDS011;266;49.514;8.294;2022-07-22T02:35:43;7.30;;;6.60;;
562;SDS011;266;49.514;8.294;2022-07-22T02:38:11;6.80;;;6.20;;
562;SDS011;266;49.514;8.294;2022-07-22T02:40:39;5.93;;;5.43;;
562;SDS011;266;49.514;8.294;2022-07-22T02:43:07;6.67;;;5.93;;
562;SDS011;266;49.514;8.294;2022-07-22T02:45:36;7.47;;;6.73;;
562;SDS011;266;49.514;8.294;2022-07-22T02:48:04;7.50;;;6.80;;
562;SDS011;266;49.514;8.294;2022-07-22T02:50:32;7.27;;;6.57;;
562;SDS011;266;49.514;8.294;2022-07-22T02:53:02;7.60;;;6.90;;
562;SDS011;266;49.514;8.294;2022-07-22T02:55:30;7.77;;;6.63;;
562;SDS011;266;49.514;8.294;2022-07-22T02:58:03;6.93;;;5.63;;
562;SDS011;266;49.514;8.294;2022-07-22T03:00:32;6.90;;;6.20;;
562;SDS011;266;49.514;8.294;2022-07-22T03:03:01;8.43;;;7.50;;
562;SDS011;266;49.514;8.294;2022-07-22T03:05:29;7.30;;;6.57;;
562;SDS011;266;49.514;8.294;2022-07-22T03:07:57;6.57;;;5.97;;
562;SDS011;266;49.514;8.294;2022-07-22T03:10:25;7.97;;;7.27;;
562;SDS011;266;49.514;8.294;2022-07-22T03:12:53;7.10;;;6.37;;
562;SDS011;266;49.514;8.294;2022-07-22T03:15:22;8.23;;;6.80;;
562;SDS011;266;49.514;8.294;2022-07-22T03:17:50;7.53;;;6.83;;
562;SDS011;266;49.514;8.294;2022-07-22T03:20:19;9.17;;;8.27;;
562;SDS011;266;49.514;8.294;2022-07-22T03:22:47;10.10;;;8.13;;
562;SDS011;266;49.514;8.294;2022-07-22T03:25:17;8.30;;;7.60;;
562;SDS011;266;49.514;8.294;2022-07-22T03:27:46;7.27;;;6.67;;
562;SDS011;266;49.514;8.294;2022-07-22T03:30:14;7.47;;;6.77;;
562;SDS011;266;49.514;8.294;2022-07-22T03:32:42;8.07;;;7.37;;
562;SDS011;266;49.514;8.294;2022-07-22T03:35:16;7.10;;;6.40;;
562;SDS011;266;49.514;8.294;2022-07-22T03:37:45;8.40;;;7.70;;
562;SDS011;266;49.514;8.294;2022-07-22T03:40:13;9.03;;;8.00;;
562;SDS011;266;49.514;8.294;2022-07-22T03:42:42;8.00;;;7.30;;
562;SDS011;266;49.514;8.294;2022-07-22T03:45:12;8.80;;;7.17;;
562;SDS011;266;49.514;8.294;2022-07-22T03:47:41;8.70;;;7.60;;
562;SDS011;266;49.514;8.294;2022-07-22T03:50:09;6.67;;;6.07;;
562;SDS011;266;49.514;8.294;2022-07-22T03:52:37;8.47;;;7.77;;
562;SDS011;266;49.514;8.294;2022-07-22T03:55:07;7.70;;;7.00;;
562;SDS011;266;49.514;8.294;2022-07-22T03:57:35;8.70;;;7.90;;
562;SDS011;266;49.514;8.294;2022-07-22T04:00:04;7.60;;;6.43;;
562;SDS011;266;49.514;8.294;2022-07-22T04:02:33;6.90;;;6.30;;
562;SDS011;266;49.514;8.294;2022-07-22T04:05:01;7.80;;;6.83;;
562;SDS011;266;49.514;8.294;2022-07-22T04:07:29;8.13;;;6.70;;
562;SDS011;266;49.514;8.294;2022-07-22T04:09:57;9.33;;;7.47;;
562;SDS011;266;49.514;8.294;2022-07-22T04:12:33;8.23;;;7.07;;
562;SDS011;266;49.514;8.294;2022-07-22T04:15:03;8.13;;;7.33;;
562;SDS011;266;49.514;8.294;2022-07-22T04:17:32;7.80;;;7.10;;
562;SDS011;266;49.514;8.294;2022-07-22T04:20:00;7.70;;;7.00;;
562;SDS011;266;49.514;8.294;2022-07-22T04:22:28;7.47;;;6.80;;
562;SDS011;266;49.514;8.294;2022-07-22T04:24:56;8.30;;;7.13;;
562;SDS011;266;49.514;8.294;2022-07-22T04:27:24;7.63;;;6.93;;
562;SDS011;266;49.514;8.294;2022-07-22T04:29:53;28.77;;;9.20;;
562;SDS011;266;49.514;8.294;2022-07-22T04:32:21;7.43;;;6.77;;
562;SDS011;266;49.514;8.294;2022-07-22T04:34:49;7.80;;;7.00;;
562;SDS011;266;49.514;8.294;2022-07-22T04:37:17;8.70;;;7.90;;
562;SDS011;266;49.514;8.294;2022-07-22T04:39:45;7.90;;;7.20;;
562;SDS011;266;49.514;8.294;2022-07-22T04:42:13;8.67;;;7.87;;
562;SDS011;266;49.514;8.294;2022-07-22T04:44:41;8.77;;;7.97;;
562;SDS011;266;49.514;8.294;2022-07-22T04:47:12;8.13;;;7.33;;
562;SDS011;266;49.514;8.294;2022-07-22T04:49:40;8.00;;;7.30;;
562;SDS011;266;49.514;8.294;2022-07-22T04:52:08;7.80;;;7.00;;
562;SDS011;266;49.514;8.294;2022-07-22T04:54:37;8.67;;;7.77;;
562;SDS011;266;49.514;8.294;2022-07-22T04:57:05;7.50;;;6.70;;
562;SDS011;266;49.514;8.294;2022-07-22T04:59:33;8.37;;;7.53;;
562;SDS011;266;49.514;8.294;2022-07-22T05:02:01;8.70;;;7.80;;
562;SDS011;266;49.514;8.294;2022-07-22T05:04:31;8.13;;;7.43;;
562;SDS011;266;49.514;8.294;2022-07-22T05:06:59;8.37;;;7.60;;
562;SDS011;266;49.514;8.294;2022-07-22T05:09:29;7.90;;;6.70;;
562;SDS011;266;49.514;8.294;2022-07-22T05:11:57;7.43;;;6.70;;
562;SDS011;266;49.514;8.294;2022-07-22T05:14:25;8.30;;;7.50;;
562;SDS011;266;49.514;8.294;2022-07-22T05:16:53;8.03;;;7.00;;
562;SDS011;266;49.514;8.294;2022-07-22T05:19:21;8.40;;;6.87;;
562;SDS011;266;49.514;8.294;2022-07-22T05:21:50;8.30;;;7.60;;
562;SDS011;266;49.514;8.294;2022-07-22T05:24:19;7.70;;;7.00;;
562;SDS011;266;49.514;8.294;2022-07-22T05:26:46;7.13;;;6.53;;
562;SDS011;266;49.514;8.294;2022-07-22T05:29:14;8.23;;;7.40;;
562;SDS011;266;49.514;8.294;2022-07-22T05:31:42;9.13;;;8.30;;
562;SDS011;266;49.514;8.294;2022-07-22T05:34:11;8.33;;;7.53;;
562;SDS011;266;49.514;8.294;2022-07-22T05:36:39;8.80;;;7.60;;
562;SDS011;266;49.514;8.294;2022-07-22T05:39:08;8.70;;;8.00;;
562;SDS011;266;49.514;8.294;2022-07-22T05:41:36;7.07;;;6.40;;
562;SDS011;266;49.514;8.294;2022-07-22T05:44:04;7.03;;;6.33;;
562;SDS011;266;49.514;8.294;2022-07-22T05:46:32;7.93;;;7.10;;
562;SDS011;266;49.514;8.294;2022-07-22T05:49:00;8.73;;;7.70;;
562;SDS011;266;49.514;8.294;2022-07-22T05:51:28;7.43;;;6.73;;
562;SDS011;266;49.514;8.294;2022-07-22T05:53:56;8.87;;;7.97;;
562;SDS011;266;49.514;8.294;2022-07-22T05:56:26;8.00;;;7.30;;
562;SDS011;266;49.514;8.294;2022-07-22T05:58:54;8.37;;;7.50;;
562;SDS011;266;49.514;8.294;2022-07-22T06:01:23;8.20;;;6.90;;
562;SDS011;266;49.514;8.294;2022-07-22T06:03:51;9.00;;;7.27;;
562;SDS011;266;49.514;8.294;2022-07-22T06:06:20;7.13;;;6.40;;
562;SDS011;266;49.514;8.294;2022-07-22T06:08:47;11.60;;;7.93;;
562;SDS011;266;49.514;8.294;2022-07-22T06:11:19;7.90;;;7.20;;
562;SDS011;266;49.514;8.294;2022-07-22T06:13:49;7.23;;;6.37;;
562;SDS011;266;49.514;8.294;2022-07-22T06:16:17;7.37;;;6.57;;
562;SDS011;266;49.514;8.294;2022-07-22T06:18:45;8.60;;;7.77;;
562;SDS011;266;49.514;8.294;2022-07-22T06:21:13;7.83;;;7.10;;
562;SDS011;266;49.514;8.294;2022-07-22T06:23:41;8.00;;;7.30;;
562;SDS011;266;49.514;8.294;2022-07-22T06:26:09;7.53;;;6.80;;
562;SDS011;266;49.514;8.294;2022-07-22T06:28:37;8.97;;;6.70;;
562;SDS011;266;49.514;8.294;2022-07-22T06:31:06;6.27;;;5.77;;
562;SDS011;266;49.514;8.294;2022-07-22T06:33:34;7.47;;;6.73;;
562;SDS011;266;49.514;8.294;2022-07-22T06:36:03;6.70;;;6.10;;
562;SDS011;266;49.514;8.294;2022-07-22T06:38:32;7.63;;;5.70;;
562;SDS011;266;49.514;8.294;2022-07-22T06:41:07;5.73;;;5.23;;
562;SDS011;266;49.514;8.294;2022-07-22T06:43:35;7.87;;;7.07;;
562;SDS011;266;49.514;8.294;2022-07-22T06:46:03;6.33;;;5.63;;
562;SDS011;266;49.514;8.294;2022-07-22T06:48:33;7.20;;;6.50;;
562;SDS011;266;49.514;8.294;2022-07-22T06:51:01;7.03;;;6.43;;
562;SDS011;266;49.514;8.294;2022-07-22T06:53:29;6.50;;;5.30;;
562;SDS011;266;49.514;8.294;2022-07-22T06:55:57;6.70;;;6.10;;
562;SDS011;266;49.514;8.294;2022-07-22T06:58:32;7.43;;;6.73;;
562;SDS011;266;49.514;8.294;2022-07-22T07:01:00;7.97;;;7.20;;
562;SDS011;266;49.514;8.294;2022-07-22T07:03:28;6.83;;;6.23;;
562;SDS011;266;49.514;8.294;2022-07-22T07:06:02;6.87;;;6.27;;
562;SDS011;266;49.514;8.294;2022-07-22T07:08:31;6.37;;;5.47;;
562;SDS011;266;49.514;8.294;2022-07-22T07:10:59;6.47;;;5.87;;
562;SDS011;266;49.514;8.294;2022-07-22T07:13:27;5.90;;;5.30;;
562;SDS011;266;49.514;8.294;2022-07-22T07:15:55;5.43;;;4.93;;
562;SDS011;266;49.514;8.294;2022-07-22T07:18:23;7.83;;;6.20;;
562;SDS011;266;49.514;8.294;2022-07-22T07:20:52;7.50;;;6.47;;
562;SDS011;266;49.514;8.294;2022-07-22T07:23:22;8.10;;;6.90;;
562;SDS011;266;49.514;8.294;2022-07-22T07:25:50;7.50;;;6.77;;
562;SDS011;266;49.514;8.294;2022-07-22T07:28:19;6.80;;;6.10;;
562;SDS011;266;49.514;8.294;2022-07-22T07:30:47;5.97;;;5.37;;
562;SDS011;266;49.514;8.294;2022-07-22T07:33:15;6.73;;;6.13;;
562;SDS011;266;49.514;8.294;2022-07-22T07:35:43;5.77;;;5.20;;
562;SDS011;266;49.514;8.294;2022-07-22T07:38:11;7.10;;;6.40;;
562;SDS011;266;49.514;8.294;2022-07-22T07:40:41;6.73;;;6.00;;
562;SDS011;266;49.514;8.294;2022-07-22T07:43:09;6.73;;;5.63;;
562;SDS011;266;49.514;8.294;2022-07-22T07:45:38;6.57;;;5.87;;
562;SDS011;266;49.514;8.294;2022-07-22T07:48:06;5.73;;;5.20;;
562;SDS011;266;49.514;8.294;2022-07-22T07:50:34;7.53;;;6.63;;
562;SDS011;266;49.514;8.294;2022-07-22T07:53:02;5.83;;;5.33;;
562;SDS011;266;49.514;8.294;2022-07-22T07:55:30;9.53;;;5.93;;
562;SDS011;266;49.514;8.294;2022-07-22T07:58:03;7.23;;;6.10;;
562;SDS011;266;49.514;8.294;2022-07-22T08:00:32;6.23;;;5.60;;
562;SDS011;266;49.514;8.294;2022-07-22T08:03:01;6.40;;;5.83;;
562;SDS011;266;49.514;8.294;2022-07-22T08:05:32;5.87;;;5.20;;
562;SDS011;266;49.514;8.294;2022-07-22T08:08:00;7.17;;;6.47;;
562;SDS011;266;49.514;8.294;2022-07-22T08:10:36;6.63;;;5.40;;
562;SDS011;266;49.514;8.294;2022-07-22T08:13:24;6.27;;;5.30;;
562;SDS011;266;49.514;8.294;2022-07-22T08:15:53;8.47;;;5.90;;
562;SDS011;266;49.514;8.294;2022-07-22T08:18:21;6.53;;;5.97;;
562;SDS011;266;49.514;8.294;2022-07-22T08:20:49;6.47;;;5.50;;
562;SDS011;266;49.514;8.294;2022-07-22T08:23:17;6.03;;;5.47;;
562;SDS011;266;49.514;8.294;2022-07-22T08:25:45;6.03;;;5.50;;
562;SDS011;266;49.514;8.294;2022-07-22T08:28:14;5.80;;;5.30;;
562;SDS011;266;49.514;8.294;2022-07-22T08:30:43;6.97;;;5.50;;
562;SDS011;266;49.514;8.294;2022-07-22T08:33:11;7.47;;;5.43;;
562;SDS011;266;49.514;8.294;2022-07-22T08:35:40;6.37;;;5.77;;
562;SDS011;266;49.514;8.294;2022-07-22T08:38:08;6.10;;;5.53;;
562;SDS011;266;49.514;8.294;2022-07-22T08:40:36;5.93;;;5.40;;
562;SDS011;266;49.514;8.294;2022-07-22T08:43:04;5.00;;;4.60;;
562;SDS011;266;49.514;8.294;2022-07-22T08:45:33;7.13;;;5.40;;
562;SDS011;266;49.514;8.294;2022-07-22T08:48:04;5.53;;;4.90;;
562;SDS011;266;49.514;8.294;2022-07-22T08:50:33;6.40;;;5.67;;
562;SDS011;266;49.514;8.294;2022-07-22T08:53:01;5.90;;;5.40;;
562;SDS011;266;49.514;8.294;2022-07-22T08:55:31;5.90;;;5.40;;
562;SDS011;266;49.514;8.294;2022-07-22T08:57:59;7.20;;;6.47;;
562;SDS011;266;49.514;8.294;2022-07-22T09:00:27;5.50;;;5.00;;
562;SDS011;266;49.514;8.294;2022-07-22T09:02:55;6.67;;;6.03;;
562;SDS011;266;49.514;8.294;2022-07-22T09:05:25;5.40;;;4.90;;
562;SDS011;266;49.514;8.294;2022-07-22T09:08:11;5.60;;;4.87;;
562;SDS011;266;49.514;8.294;2022-07-22T09:10:39;5.73;;;4.80;;
562;SDS011;266;49.514;8.294;2022-07-22T09:13:08;7.37;;;5.00;;
562;SDS011;266;49.514;8.294;2022-07-22T09:15:38;5.80;;;5.20;;
562;SDS011;266;49.514;8.294;2022-07-22T09:18:13;5.60;;;5.10;;
562;SDS011;266;49.514;8.294;2022-07-22T09:20:43;5.83;;;5.10;;
562;SDS011;266;49.514;8.294;2022-07-22T09:23:12;5.70;;;5.20;;
562;SDS011;266;49.514;8.294;2022-07-22T09:25:41;6.23;;;5.70;;
562;SDS011;266;49.514;8.294;2022-07-22T09:28:10;5.20;;;4.80;;
562;SDS011;266;49.514;8.294;2022-07-22T09:30:48;5.10;;;4.70;;
562;SDS011;266;49.514;8.294;2022-07-22T09:33:19;4.67;;;4.27;;
562;SDS011;266;49.514;8.294;2022-07-22T09:35:50;5.50;;;5.03;;
562;SDS011;266;49.514;8.294;2022-07-22T09:38:20;4.73;;;4.33;;
562;SDS011;266;49.514;8.294;2022-07-22T09:40:55;4.80;;;4.40;;
562;SDS011;266;49.514;8.294;2022-07-22T09:43:25;5.50;;;5.00;;
562;SDS011;266;49.514;8.294;2022-07-22T09:45:58;7.50;;;5.67;;
562;SDS011;266;49.514;8.294;2022-07-22T09:48:26;6.37;;;5.20;;
562;SDS011;266;49.514;8.294;2022-07-22T09:50:56;5.93;;;5.20;;
562;SDS011;266;49.514;8.294;2022-07-22T09:53:25;5.17;;;4.77;;
562;SDS011;266;49.514;8.294;2022-07-22T09:55:55;5.87;;;5.37;;
562;SDS011;266;49.514;8.294;2022-07-22T09:58:24;5.23;;;4.70;;
562;SDS011;266;49.514;8.294;2022-07-22T10:00:53;5.27;;;4.87;;
562;SDS011;266;49.514;8.294;2022-07-22T10:03:25;5.10;;;4.70;;
562;SDS011;266;49.514;8.294;2022-07-22T10:05:55;5.40;;;4.87;;
562;SDS011;266;49.514;8.294;2022-07-22T10:08:24;5.60;;;5.10;;
562;SDS011;266;49.514;8.294;2022-07-22T10:10:53;5.53;;;5.10;;
562;SDS011;266;49.514;8.294;2022-07-22T10:13:26;5.70;;;5.10;;
562;SDS011;266;49.514;8.294;2022-07-22T10:15:55;4.87;;;4.47;;
562;SDS011;266;49.514;8.294;2022-07-22T10:18:24;5.70;;;5.20;;
562;SDS011;266;49.514;8.294;2022-07-22T10:21:02;6.20;;;5.67;;
562;SDS011;266;49.514;8.294;2022-07-22T10:23:32;5.30;;;4.80;;
562;SDS011;266;49.514;8.294;2022-07-22T10:26:01;5.87;;;5.40;;
562;SDS011;266;49.514;8.294;2022-07-22T10:28:32;5.10;;;4.60;;
562;SDS011;266;49.514;8.294;2022-07-22T10:33:54;6.17;;;5.60;;
562;SDS011;266;49.514;8.294;2022-07-22T10:36:32;5.10;;;4.70;;
562;SDS011;266;49.514;8.294;2022-07-22T10:39:03;6.00;;;5.00;;
562;SDS011;266;49.514;8.294;2022-07-22T10:41:33;4.97;;;4.57;;
562;SDS011;266;49.514;8.294;2022-07-22T10:44:03;4.70;;;4.30;;
562;SDS011;266;49.514;8.294;2022-07-22T10:46:47;4.80;;;4.40;;
562;SDS011;266;49.514;8.294;2022-07-22T10:49:17;5.73;;;5.33;;
562;SDS011;266;49.514;8.294;2022-07-22T10:57:43;6.07;;;4.97;;
562;SDS011;266;49.514;8.294;2022-07-22T11:00:13;5.10;;;4.70;;
562;SDS011;266;49.514;8.294;2022-07-22T11:02:41;5.03;;;4.57;;
562;SDS011;266;49.514;8.294;2022-07-22T11:05:09;5.03;;;4.60;;
562;SDS011;266;49.514;8.294;2022-07-22T11:07:41;4.23;;;3.93;;
562;SDS011;266;49.514;8.294;2022-07-22T11:10:10;5.00;;;4.60;;
562;SDS011;266;49.514;8.294;2022-07-22T11:12:44;5.00;;;4.60;;
562;SDS011;266;49.514;8.294;2022-07-22T11:15:14;5.53;;;4.80;;
562;SDS011;266;49.514;8.294;2022-07-22T11:17:43;5.20;;;4.70;;
562;SDS011;266;49.514;8.294;2022-07-22T11:20:12;5.97;;;5.47;;
562;SDS011;266;49.514;8.294;2022-07-22T11:22:42;5.00;;;4.60;;
562;SDS011;266;49.514;8.294;2022-07-22T11:25:14;6.47;;;5.87;;
562;SDS011;266;49.514;8.294;2022-07-22T11:27:47;4.97;;;4.50;;
562;SDS011;266;49.514;8.294;2022-07-22T11:30:17;5.40;;;4.90;;
562;SDS011;266;49.514;8.294;2022-07-22T11:32:46;5.80;;;5.30;;
562;SDS011;266;49.514;8.294;2022-07-22T11:35:15;5.80;;;5.30;;
562;SDS011;266;49.514;8.294;2022-07-22T11:37:44;5.70;;;5.30;;
562;SDS011;266;49.514;8.294;2022-07-22T11:40:22;5.50;;;5.10;;
562;SDS011;266;49.514;8.294;2022-07-22T11:43:00;5.07;;;4.67;;
562;SDS011;266;49.514;8.294;2022-07-22T11:45:28;5.77;;;5.27;;
562;SDS011;266;49.514;8.294;2022-07-22T11:47:56;5.60;;;5.10;;
562;SDS011;266;49.514;8.294;2022-07-22T11:50:31;5.50;;;5.00;;
562;SDS011;266;49.514;8.294;2022-07-22T11:53:02;4.53;;;4.23;;
562;SDS011;266;49.514;8.294;2022-07-22T11:55:32;5.23;;;4.80;;
562;SDS011;266;49.514;8.294;2022-07-22T11:58:01;6.30;;;5.80;;
562;SDS011;266;49.514;8.294;2022-07-22T12:00:29;5.80;;;5.30;;
562;SDS011;266;49.514;8.294;2022-07-22T12:02:57;5.10;;;4.70;;
562;SDS011;266;49.514;8.294;2022-07-22T12:05:25;4.83;;;4.53;;
562;SDS011;266;49.514;8.294;2022-07-22T12:07:57;5.27;;;4.77;;
562;SDS011;266;49.514;8.294;2022-07-22T12:10:27;4.80;;;4.50;;
562;SDS011;266;49.514;8.294;2022-07-22T12:12:55;4.53;;;4.17;;
562;SDS011;266;49.514;8.294;2022-07-22T12:15:23;4.87;;;4.47;;
562;SDS011;266;49.514;8.294;2022-07-22T12:18:15;5.07;;;4.70;;
562;SDS011;266;49.514;8.294;2022-07-22T12:20:44;5.57;;;5.00;;
562;SDS011;266;49.514;8.294;2022-07-22T12:23:19;5.20;;;4.80;;
562;SDS011;266;49.514;8.294;2022-07-22T12:25:55;4.87;;;4.37;;
562;SDS011;266;49.514;8.294;2022-07-22T12:28:25;4.63;;;4.23;;
562;SDS011;266;49.514;8.294;2022-07-22T12:30:54;4.53;;;4.23;;
562;SDS011;266;49.514;8.294;2022-07-22T12:33:23;5.00;;;4.60;;
562;SDS011;266;49.514;8.294;2022-07-22T12:35:57;4.67;;;4.37;;
562;SDS011;266;49.514;8.294;2022-07-22T12:38:26;4.80;;;4.50;;
562;SDS011;266;49.514;8.294;2022-07-22T12:43:56;5.70;;;4.77;;
562;SDS011;266;49.514;8.294;2022-07-22T12:46:24;5.00;;;4.37;;
562;SDS011;266;49.514;8.294;2022-07-22T12:48:53;4.77;;;4.43;;
562;SDS011;266;49.514;8.294;2022-07-22T12:51:26;4.67;;;4.27;;
562;SDS011;266;49.514;8.294;2022-07-22T12:53:54;5.97;;;5.47;;
562;SDS011;266;49.514;8.294;2022-07-22T12:56:23;4.87;;;4.57;;
562;SDS011;266;49.514;8.294;2022-07-22T12:58:52;5.20;;;4.80;;
562;SDS011;266;49.514;8.294;2022-07-22T13:01:20;5.07;;;4.67;;
562;SDS011;266;49.514;8.294;2022-07-22T13:03:48;5.93;;;4.90;;
562;SDS011;266;49.514;8.294;2022-07-22T13:06:16;5.30;;;4.87;;
562;SDS011;266;49.514;8.294;2022-07-22T13:08:46;4.67;;;4.27;;
562;SDS011;266;49.514;8.294;2022-07-22T13:11:13;4.83;;;4.33;;
562;SDS011;266;49.514;8.294;2022-07-22T13:13:42;5.07;;;4.77;;
562;SDS011;266;49.514;8.294;2022-07-22T13:16:13;4.83;;;4.43;;
562;SDS011;266;49.514;8.294;2022-07-22T13:18:41;4.93;;;4.47;;
562;SDS011;266;49.514;8.294;2022-07-22T13:21:09;5.23;;;4.83;;
562;SDS011;266;49.514;8.294;2022-07-22T13:23:37;5.27;;;4.73;;
562;SDS011;266;49.514;8.294;2022-07-22T13:26:05;4.63;;;4.30;;
562;SDS011;266;49.514;8.294;2022-07-22T13:28:34;4.77;;;4.37;;
562;SDS011;266;49.514;8.294;2022-07-22T13:31:02;5.40;;;4.43;;
562;SDS011;266;49.514;8.294;2022-07-22T13:33:32;4.83;;;4.43;;
562;SDS011;266;49.514;8.294;2022-07-22T13:36:00;5.13;;;4.57;;
562;SDS011;266;49.514;8.294;2022-07-22T13:38:29;4.10;;;3.80;;
562;SDS011;266;49.514;8.294;2022-07-22T13:40:57;4.20;;;3.90;;
562;SDS011;266;49.514;8.294;2022-07-22T13:43:26;4.30;;;4.00;;
562;SDS011;266;49.514;8.294;2022-07-22T13:45:54;5.07;;;4.70;;
562;SDS011;266;49.514;8.294;2022-07-22T13:48:22;4.90;;;4.50;;
562;SDS011;266;49.514;8.294;2022-07-22T13:50:51;4.93;;;4.40;;
562;SDS011;266;49.514;8.294;2022-07-22T13:53:19;5.07;;;4.67;;
562;SDS011;266;49.514;8.294;2022-07-22T13:55:47;3.87;;;3.57;;
562;SDS011;266;49.514;8.294;2022-07-22T13:58:15;4.20;;;3.90;;
562;SDS011;266;49.514;8.294;2022-07-22T14:00:43;4.93;;;4.53;;
562;SDS011;266;49.514;8.294;2022-07-22T14:03:14;5.63;;;4.90;;
562;SDS011;266;49.514;8.294;2022-07-22T14:05:43;4.57;;;4.10;;
562;SDS011;266;49.514;8.294;2022-07-22T14:08:12;5.70;;;5.30;;
562;SDS011;266;49.514;8.294;2022-07-22T14:10:40;4.97;;;4.57;;
562;SDS011;266;49.514;8.294;2022-07-22T14:13:08;5.17;;;4.70;;
562;SDS011;266;49.514;8.294;2022-07-22T14:15:37;4.40;;;4.10;;
562;SDS011;266;49.514;8.294;2022-07-22T14:18:05;4.80;;;4.40;;
562;SDS011;266;49.514;8.294;2022-07-22T14:20:34;4.53;;;4.13;;
562;SDS011;266;49.514;8.294;2022-07-22T14:23:02;5.63;;;5.20;;
562;SDS011;266;49.514;8.294;2022-07-22T14:25:33;5.13;;;4.73;;
562;SDS011;266;49.514;8.294;2022-07-22T14:28:01;4.53;;;4.23;;
562;SDS011;266;49.514;8.294;2022-07-22T14:30:50;4.30;;;3.90;;
562;SDS011;266;49.514;8.294;2022-07-22T14:33:18;4.93;;;4.63;;
562;SDS011;266;49.514;8.294;2022-07-22T14:35:46;5.37;;;4.80;;
562;SDS011;266;49.514;8.294;2022-07-22T14:38:14;4.67;;;4.30;;
562;SDS011;266;49.514;8.294;2022-07-22T14:40:45;4.83;;;4.43;;
562;SDS011;266;49.514;8.294;2022-07-22T14:43:13;4.80;;;4.40;;
562;SDS011;266;49.514;8.294;2022-07-22T14:45:58;5.50;;;4.80;;
562;SDS011;266;49.514;8.294;2022-07-22T14:48:27;4.53;;;4.23;;
562;SDS011;266;49.514;8.294;2022-07-22T14:50:55;5.40;;;5.00;;
562;SDS011;266;49.514;8.294;2022-07-22T14:53:23;6.10;;;4.83;;
562;SDS011;266;49.514;8.294;2022-07-22T14:55:53;5.37;;;4.97;;
562;SDS011;266;49.514;8.294;2022-07-22T14:58:21;4.60;;;4.20;;
562;SDS011;266;49.514;8.294;2022-07-22T15:00:49;5.20;;;4.77;;
562;SDS011;266;49.514;8.294;2022-07-22T15:03:17;5.47;;;5.07;;
562;SDS011;266;49.514;8.294;2022-07-22T15:05:45;4.97;;;4.57;;
562;SDS011;266;49.514;8.294;2022-07-22T15:08:13;5.13;;;4.73;;
562;SDS011;266;49.514;8.294;2022-07-22T15:10:41;5.73;;;5.13;;
562;SDS011;266;49.514;8.294;2022-07-22T15:13:11;5.13;;;4.73;;
562;SDS011;266;49.514;8.294;2022-07-22T15:15:39;4.83;;;4.40;;
562;SDS011;266;49.514;8.294;2022-07-22T15:18:07;4.83;;;4.47;;
562;SDS011;266;49.514;8.294;2022-07-22T15:20:35;5.30;;;4.90;;
562;SDS011;266;49.514;8.294;2022-07-22T15:23:03;4.93;;;4.40;;
562;SDS011;266;49.514;8.294;2022-07-22T15:25:34;5.03;;;4.63;;
562;SDS011;266;49.514;8.294;2022-07-22T15:28:03;4.70;;;4.40;;
562;SDS011;266;49.514;8.294;2022-07-22T15:30:54;4.57;;;4.17;;
562;SDS011;266;49.514;8.294;2022-07-22T15:33:23;5.37;;;4.97;;
562;SDS011;266;49.514;8.294;2022-07-22T15:36:02;5.27;;;4.87;;
562;SDS011;266;49.514;8.294;2022-07-22T15:38:31;5.27;;;4.83;;
562;SDS011;266;49.514;8.294;2022-07-22T15:40:59;4.63;;;4.33;;
562;SDS011;266;49.514;8.294;2022-07-22T15:43:28;4.80;;;4.20;;
562;SDS011;266;49.514;8.294;2022-07-22T15:45:57;5.40;;;5.00;;
562;SDS011;266;49.514;8.294;2022-07-22T15:48:25;5.70;;;5.20;;
562;SDS011;266;49.514;8.294;2022-07-22T15:50:53;4.67;;;4.30;;
562;SDS011;266;49.514;8.294;2022-07-22T15:53:28;5.30;;;4.90;;
562;SDS011;266;49.514;8.294;2022-07-22T15:55:56;4.67;;;4.37;;
562;SDS011;266;49.514;8.294;2022-07-22T15:58:24;4.20;;;3.90;;
562;SDS011;266;49.514;8.294;2022-07-22T16:01:34;5.40;;;5.00;;
562;SDS011;266;49.514;8.294;2022-07-22T16:04:02;5.20;;;4.70;;
562;SDS011;266;49.514;8.294;2022-07-22T16:06:30;5.93;;;5.33;;
562;SDS011;266;49.514;8.294;2022-07-22T16:08:59;5.03;;;4.73;;
562;SDS011;266;49.514;8.294;2022-07-22T16:11:31;5.87;;;5.37;;